Time;durP1;ratioP1;P1;durP2;ratioP2;P2;SDS_P1;SDS_P2;PMS_P1;PMS_P2;Temp;Humidity;BMP_temperature;BMP_pressure;BME280_temperature;BME280_humidity;BME280_pressure;Samples;Min_cycle;Max_cycle;Signal;HPM_P1;HPM_P2
2022/09/09 00:01:25;;;;;;;6.72;1.45;;;;;;;13.44;61.28;99363.81;1698318;83;20973;-60
2022/09/09 00:03:57;;;;;;;3.17;1.25;;;;;;;13.42;61.32;99358.69;1693890;82;21034;-60
2022/09/09 00:06:31;;;;;;;6.08;1.07;;;;;;;13.43;61.38;99356.90;1701345;83;20957;-60
2022/09/09 00:09:09;;;;;;;3.00;1.50;;;;;;;13.42;61.38;99364.41;1673570;84;20978;-60
2022/09/09 00:11:50;;;;;;;4.97;1.22;;;;;;;13.42;61.43;99356.55;1715213;83;21055;-60
2022/09/09 00:14:49;;;;;;;3.62;1.60;;;;;;;13.41;61.42;99357.46;1691005;83;20923;-61
2022/09/09 00:17:45;;;;;;;3.42;1.10;;;;;;;13.41;61.45;99349.59;1694445;83;20970;-61
2022/09/09 00:20:26;;;;;;;3.98;1.47;;;;;;;13.39;61.49;99350.19;1652142;85;21527;-61
2022/09/09 00:23:01;;;;;;;3.37;1.70;;;;;;;13.39;61.53;99350.19;1643300;86;21026;-61
2022/09/09 00:25:34;;;;;;;5.50;1.40;;;;;;;13.37;61.50;99340.26;1649090;86;21027;-60
2022/09/09 00:28:01;;;;;;;4.90;1.70;;;;;;;13.33;61.52;99333.52;1648135;86;21014;-60
2022/09/09 00:30:34;;;;;;;6.87;1.30;;;;;;;13.32;61.63;99337.09;1652581;85;21008;-60
2022/09/09 00:33:05;;;;;;;4.25;1.50;;;;;;;13.27;61.68;99336.53;1659817;85;21019;-60
2022/09/09 00:35:37;;;;;;;5.05;1.20;;;;;;;13.28;61.78;99330.37;1646312;85;21081;-61
2022/09/09 00:38:17;;;;;;;5.17;1.70;;;;;;;13.25;61.83;99325.27;1658075;86;21122;-61
2022/09/09 00:41:04;;;;;;;4.28;1.47;;;;;;;13.25;61.80;99331.83;1651871;85;21521;-61
2022/09/09 00:43:36;;;;;;;1.45;1.00;;;;;;;13.22;61.90;99313.23;1614135;87;21528;-61
2022/09/09 00:46:23;;;;;;;2.12;1.30;;;;;;;13.24;61.85;99323.59;1608828;88;21580;-60
2022/09/09 00:49:17;;;;;;;;;;;;;;;13.21;61.86;99322.84;1573736;90;20989;-60
2022/09/09 00:52:18;;;;;;;7.03;1.55;;;;;;;13.17;62.04;99316.13;1568519;90;21136;-60
2022/09/09 00:55:08;;;;;;;9.08;1.27;;;;;;;13.14;62.04;99321.58;1567059;90;20978;-60
2022/09/09 00:57:36;;;;;;;3.40;1.32;;;;;;;13.15;62.06;99319.79;1602675;87;20965;-61
2022/09/09 01:00:34;;;;;;;7.12;1.45;;;;;;;13.16;62.09;99322.33;1615143;87;21001;-60
2022/09/09 01:03:24;;;;;;;2.62;1.40;;;;;;;13.13;62.10;99321.19;1615594;87;20973;-61
2022/09/09 01:06:13;;;;;;;3.30;1.57;;;;;;;13.12;62.19;99320.83;1618373;87;21174;-60
2022/09/09 01:09:19;;;;;;;2.72;1.42;;;;;;;13.13;62.16;99312.02;1615535;87;21000;-60
2022/09/09 01:12:03;;;;;;;3.10;1.27;;;;;;;13.12;62.21;99318.20;1595635;87;20981;-60
2022/09/09 01:14:44;;;;;;;2.83;1.50;;;;;;;13.11;62.22;99313.91;1591026;87;20988;-60
2022/09/09 01:17:32;;;;;;;1.92;1.37;;;;;;;13.10;62.21;99319.24;1617734;87;21045;-61
2022/09/09 01:20:19;;;;;;;4.03;1.70;;;;;;;13.11;62.27;99308.67;1624973;87;21120;-60
2022/09/09 01:22:58;;;;;;;;;;;;;;;13.10;62.30;99312.21;1617024;87;20941;-60
2022/09/09 01:26:04;;;;;;;2.15;1.27;;;;;;;13.11;62.28;99313.91;1640975;85;20139;-61
2022/09/09 01:28:31;;;;;;;;;;;;;;;13.11;62.30;99316.53;1699711;83;21497;-60
2022/09/09 01:30:59;;;;;;;2.65;1.65;;;;;;;13.10;62.29;99317.45;1699691;83;20146;-60
2022/09/09 01:33:25;;;;;;;;;;;;;;;13.07;62.28;99320.27;1679325;84;21097;-61
2022/09/09 01:36:12;;;;;;;3.33;1.53;;;;;;;13.07;62.32;99317.66;1688825;83;20089;-61
2022/09/09 01:38:39;;;;;;;2.20;1.27;;;;;;;13.05;62.36;99327.42;1663230;85;20978;-61
2022/09/09 01:41:06;;;;;;;2.47;1.40;;;;;;;13.01;62.31;99315.43;1672324;84;20967;-60
2022/09/09 01:43:33;;;;;;;5.70;1.70;;;;;;;13.01;62.35;99325.91;1670556;83;21066;-60
2022/09/09 01:46:01;;;;;;;2.17;1.30;;;;;;;13.00;62.36;99325.55;1674816;84;21140;-61
2022/09/09 01:48:28;;;;;;;3.33;1.42;;;;;;;13.01;62.38;99328.53;1678477;84;21010;-60
2022/09/09 01:50:55;;;;;;;2.50;1.40;;;;;;;13.01;62.49;99330.32;1696039;83;23841;-60
2022/09/09 01:53:23;;;;;;;2.83;1.70;;;;;;;13.01;62.52;99314.59;1691277;83;21533;-61
2022/09/09 01:56:23;;;;;;;4.70;1.42;;;;;;;13.02;62.51;99323.66;1693177;83;20997;-60
2022/09/09 01:59:28;;;;;;;3.85;1.42;;;;;;;13.01;62.52;99320.67;1696535;84;21492;-61
2022/09/09 02:02:09;;;;;;;3.15;1.45;;;;;;;13.03;62.53;99324.05;1696116;83;20907;-61
2022/09/09 02:04:55;;;;;;;2.60;1.35;;;;;;;13.03;62.56;99321.42;1698298;83;20938;-60
2022/09/09 02:07:43;;;;;;;1.90;1.30;;;;;;;13.05;62.57;99322.17;1692241;83;20937;-60
2022/09/09 02:10:24;;;;;;;1.87;1.40;;;;;;;13.05;62.55;99319.55;1697367;83;20942;-60
2022/09/09 02:13:02;;;;;;;3.27;1.65;;;;;;;13.05;62.55;99323.48;1697532;83;21175;-61
2022/09/09 02:15:40;;;;;;;3.62;1.40;;;;;;;13.07;62.57;99317.66;1697700;83;20962;-60
2022/09/09 02:18:09;;;;;;;6.45;1.35;;;;;;;13.05;62.55;99309.07;1693198;83;21013;-60
2022/09/09 02:20:38;;;;;;;3.62;1.47;;;;;;;13.06;62.54;99319.91;1695653;83;20970;-60
2022/09/09 02:23:08;;;;;;;2.70;1.60;;;;;;;13.05;62.59;99324.80;1692868;83;20957;-60
2022/09/09 02:25:37;;;;;;;4.35;1.32;;;;;;;13.05;62.61;99315.63;1695643;83;21143;-61
2022/09/09 02:28:08;;;;;;;5.03;1.47;;;;;;;13.04;62.58;99313.92;1694401;83;21637;-60
2022/09/09 02:30:37;;;;;;;7.05;1.80;;;;;;;13.03;62.68;99321.42;1697455;83;21037;-60
2022/09/09 02:33:07;;;;;;;2.17;1.20;;;;;;;13.00;62.74;99316.38;1694234;84;20976;-60
2022/09/09 02:35:39;;;;;;;3.58;1.27;;;;;;;12.98;62.77;99320.39;1693223;83;21006;-60
2022/09/09 02:38:08;;;;;;;2.98;1.50;;;;;;;12.99;62.77;99323.84;1688571;84;22059;-60
2022/09/09 02:40:35;;;;;;;5.75;1.80;;;;;;;12.99;62.87;99314.67;1692680;84;20970;-60
2022/09/09 02:43:02;;;;;;;2.08;1.20;;;;;;;12.97;62.94;99321.81;1695486;83;20974;-60
2022/09/09 02:46:07;;;;;;;4.92;1.20;;;;;;;12.97;63.01;99317.89;1694847;83;21017;-60
2022/09/09 02:48:54;;;;;;;9.45;1.47;;;;;;;12.96;63.08;99325.36;1692550;84;20938;-60
2022/09/09 02:51:55;;;;;;;5.55;1.55;;;;;;;12.93;63.08;99328.17;1674847;84;21087;-61
2022/09/09 02:54:31;;;;;;;3.02;1.45;;;;;;;12.80;63.35;99316.78;1710546;83;21108;-61
2022/09/09 02:57:17;;;;;;;5.10;1.65;;;;;;;12.80;63.35;99316.78;1696805;83;20976;-61
2022/09/09 02:59:45;;;;;;;2.33;1.22;;;;;;;12.91;63.26;99330.05;1694683;83;20946;-61
2022/09/09 03:02:12;;;;;;;2.90;1.17;;;;;;;12.91;63.30;99328.29;1672715;83;21020;-60
2022/09/09 03:04:41;;;;;;;6.37;1.80;;;;;;;12.91;63.31;99337.91;1707465;82;21052;-60
2022/09/09 03:07:08;;;;;;;1.32;1.10;;;;;;;12.91;63.28;99337.46;1699686;83;20954;-60
2022/09/09 03:09:34;;;;;;;4.90;1.30;;;;;;;12.91;63.27;99340.52;1704845;83;21464;-60
2022/09/09 03:12:02;;;;;;;3.67;1.40;;;;;;;12.90;63.34;99341.47;1702054;83;20982;-60
2022/09/09 03:14:28;;;;;;;;;;;;;;;12.89;63.34;99339.80;1704363;82;21468;-60
2022/09/09 03:16:56;;;;;;;2.15;1.25;;;;;;;12.85;63.69;99346.16;1699308;83;21072;-60
2022/09/09 03:19:22;;;;;;;3.87;1.37;;;;;;;12.76;63.63;99348.41;1696670;83;20910;-61
2022/09/09 03:21:49;;;;;;;4.27;1.20;;;;;;;12.66;63.76;99352.55;1701121;83;20934;-60
2022/09/09 03:24:16;;;;;;;9.50;1.73;;;;;;;12.55;64.02;99357.61;1697993;83;20915;-60
2022/09/09 03:26:44;;;;;;;5.90;1.37;;;;;;;12.40;64.14;99359.84;1696922;83;21349;-60
2022/09/09 03:29:12;;;;;;;4.42;1.40;;;;;;;12.29;64.46;99366.58;1699175;83;20993;-60
2022/09/09 03:31:39;;;;;;;4.15;1.40;;;;;;;12.19;64.66;99367.22;1703046;83;21142;-60
2022/09/09 03:34:06;;;;;;;;;;;;;;;12.10;64.83;99371.22;1704836;82;20941;-61
2022/09/09 03:36:32;;;;;;;2.80;1.70;;;;;;;12.01;65.37;99371.27;1701139;82;20104;-60
2022/09/09 03:39:00;;;;;;;2.40;1.30;;;;;;;11.92;65.40;99370.98;1700009;83;20945;-60
2022/09/09 03:41:27;;;;;;;6.58;1.42;;;;;;;11.83;65.59;99365.32;1707209;83;21072;-60
2022/09/09 03:43:54;;;;;;;3.42;1.60;;;;;;;11.79;65.85;99362.52;1709172;81;20898;-61
2022/09/09 03:46:23;;;;;;;5.15;1.45;;;;;;;11.75;66.02;99364.92;1692805;84;20939;-60
2022/09/09 03:48:52;;;;;;;4.10;1.77;;;;;;;11.71;66.20;99370.44;1690196;83;20928;-61
2022/09/09 03:51:18;;;;;;;2.00;1.40;;;;;;;11.65;66.44;99372.47;1695864;83;20938;-60
2022/09/09 03:53:46;;;;;;;3.92;1.82;;;;;;;11.57;66.61;99358.15;1661947;84;21151;-61
2022/09/09 03:56:12;;;;;;;;;;;;;;;11.57;66.85;99368.61;1678162;84;20954;-60
2022/09/09 03:58:39;;;;;;;5.93;1.47;;;;;;;11.50;67.15;99377.72;1683645;84;20176;-60
2022/09/09 04:01:09;;;;;;;2.35;1.40;;;;;;;11.43;67.21;99379.38;1683827;84;21462;-60
2022/09/09 04:03:36;;;;;;;3.37;1.60;;;;;;;11.35;67.49;99382.88;1696404;83;21451;-60
2022/09/09 04:06:06;;;;;;;2.40;1.27;;;;;;;11.30;67.73;99386.20;1698115;84;21175;-61
2022/09/09 04:08:32;;;;;;;9.75;1.87;;;;;;;11.19;68.08;99385.95;1683086;84;20951;-60
2022/09/09 04:11:05;;;;;;;6.03;2.37;;;;;;;11.19;68.08;99385.95;1683094;84;21530;-60
2022/09/09 04:13:28;;;;;;;6.35;1.75;;;;;;;11.05;68.91;99389.80;1677799;84;20959;-61
2022/09/09 04:15:58;;;;;;;2.12;1.60;;;;;;;11.05;68.91;99389.80;1684109;85;20883;-60
2022/09/09 04:18:25;;;;;;;8.78;2.17;;;;;;;10.95;69.27;99396.83;1684117;84;21066;-60
2022/09/09 04:20:53;;;;;;;3.58;1.98;;;;;;;10.84;69.56;99396.56;1697114;83;20926;-61
2022/09/09 04:23:20;;;;;;;4.78;1.90;;;;;;;10.73;69.69;99394.99;1696216;83;20962;-60
2022/09/09 04:25:52;;;;;;;3.02;1.75;;;;;;;10.68;69.80;99393.08;1647074;84;26475;-61
2022/09/09 04:28:21;;;;;;;2.35;1.47;;;;;;;10.66;69.79;99385.78;1695057;83;20950;-61
2022/09/09 04:30:48;;;;;;;4.05;1.50;;;;;;;10.67;70.01;99384.84;1695422;83;21212;-61
2022/09/09 04:33:15;;;;;;;3.70;2.00;;;;;;;10.68;70.32;99383.94;1694880;84;21005;-61
2022/09/09 04:35:48;;;;;;;3.65;1.60;;;;;;;10.68;70.59;99383.94;1694691;83;21079;-60
2022/09/09 04:38:16;;;;;;;4.60;2.30;;;;;;;10.65;70.87;99394.55;1687806;83;20942;-61
2022/09/09 04:40:47;;;;;;;7.17;2.00;;;;;;;10.64;70.89;99387.62;1683084;83;20961;-61
2022/09/09 04:43:15;;;;;;;3.27;2.30;;;;;;;10.61;71.23;99395.62;1680611;84;21063;-61
2022/09/09 04:45:42;;;;;;;4.35;2.75;;;;;;;10.56;71.60;99389.79;1683631;83;20978;-61
2022/09/09 04:48:12;;;;;;;6.80;2.72;;;;;;;10.55;72.01;99395.95;1687087;83;20985;-61
2022/09/09 04:50:40;;;;;;;3.80;1.95;;;;;;;10.51;72.00;99388.28;1693533;84;20930;-61
2022/09/09 04:53:07;;;;;;;4.35;2.25;;;;;;;10.52;72.94;99396.95;1692468;83;20986;-60
2022/09/09 04:55:35;;;;;;;10.65;2.65;;;;;;;10.49;72.71;99391.42;1693819;83;21308;-60
2022/09/09 04:58:07;;;;;;;2.33;1.70;;;;;;;10.48;73.22;99400.66;1695756;83;21016;-61
2022/09/09 05:00:35;;;;;;;3.22;1.70;;;;;;;10.46;73.18;99400.72;1692253;83;20923;-61
2022/09/09 05:03:06;;;;;;;3.65;1.87;;;;;;;10.45;100.00;99392.52;1693582;82;20969;-61
2022/09/09 05:05:34;;;;;;;4.92;2.00;;;;;;;10.44;78.90;99398.64;1690772;83;21014;-60
2022/09/09 05:08:06;;;;;;;3.30;2.60;;;;;;;10.45;77.83;99402.95;1696048;83;20940;-61
2022/09/09 05:10:34;;;;;;;4.80;2.58;;;;;;;10.44;78.36;99391.28;1673885;85;20951;-61
2022/09/09 05:13:01;;;;;;;4.47;2.45;;;;;;;10.43;78.57;99402.19;1679960;84;20937;-60
2022/09/09 05:15:27;;;;;;;2.97;2.27;;;;;;;10.43;79.40;99398.27;1691851;84;20937;-61
2022/09/09 05:18:02;;;;;;;2.83;2.37;;;;;;;10.41;79.13;99401.88;1672593;84;21665;-61
2022/09/09 05:20:29;;;;;;;4.05;2.60;;;;;;;10.40;78.83;99394.98;1698807;83;21503;-61
2022/09/09 05:22:58;;;;;;;3.62;2.70;;;;;;;10.40;78.70;99401.05;1695217;84;20946;-61
2022/09/09 05:25:28;;;;;;;5.47;2.20;;;;;;;10.40;78.85;99401.05;1695048;84;21005;-61
2022/09/09 05:27:54;;;;;;;3.45;2.10;;;;;;;10.42;80.60;99399.20;1692984;84;20970;-61
2022/09/09 05:30:26;;;;;;;4.10;2.33;;;;;;;10.39;79.72;99404.59;1666672;84;20994;-61
2022/09/09 05:32:50;;;;;;;3.00;2.20;;;;;;;10.35;79.45;99397.82;1668936;84;22142;-61
2022/09/09 05:35:19;;;;;;;5.12;2.47;;;;;;;10.39;79.77;99408.50;1668138;84;21011;-60
2022/09/09 05:37:47;;;;;;;7.80;2.02;;;;;;;10.40;79.83;99406.27;1674825;84;20996;-60
2022/09/09 05:40:14;;;;;;;4.60;2.20;;;;;;;10.41;79.98;99401.88;1696268;82;20949;-61
2022/09/09 05:42:41;;;;;;;2.40;2.08;;;;;;;10.42;80.70;99404.86;1668296;84;20919;-61
2022/09/09 05:45:10;;;;;;;4.35;2.45;;;;;;;10.41;80.26;99402.72;1691537;82;21230;-59
2022/09/09 05:47:37;;;;;;;3.17;2.05;;;;;;;10.46;80.99;99400.72;1691185;83;20888;-58
2022/09/09 05:50:05;;;;;;;6.15;2.70;;;;;;;10.42;80.58;99407.03;1697638;82;20946;-59
2022/09/09 05:52:32;;;;;;;5.03;3.47;;;;;;;10.43;81.22;99407.41;1692175;83;20985;-59
2022/09/09 05:54:59;;;;;;;5.58;2.15;;;;;;;10.41;81.00;99407.94;1708622;83;20942;-60
2022/09/09 05:57:26;;;;;;;3.42;2.15;;;;;;;10.42;81.46;99414.87;1686235;83;21077;-60
2022/09/09 05:59:53;;;;;;;4.57;2.43;;;;;;;10.41;81.28;99413.16;1688254;83;20954;-60
2022/09/09 06:02:20;;;;;;;6.05;2.58;;;;;;;10.42;81.42;99412.25;1691180;83;20914;-60
2022/09/09 06:04:46;;;;;;;3.85;2.27;;;;;;;10.44;81.83;99413.00;1690299;83;21496;-60
2022/09/09 06:07:14;;;;;;;3.27;2.23;;;;;;;10.43;82.12;99420.45;1708015;82;20930;-62
2022/09/09 06:09:41;;;;;;;;;;;;;;;10.43;82.49;99416.54;1718794;83;21022;-62
2022/09/09 06:12:08;;;;;;;;;;;;;;;10.44;82.52;99413.00;1717577;81;20471;-61
2022/09/09 06:14:34;;;;;;;2.92;2.20;;;;;;;10.44;83.09;99419.98;1717053;81;20144;-61
2022/09/09 06:17:02;;;;;;;6.17;2.17;;;;;;;10.44;82.83;99419.52;1714757;83;21540;-60
2022/09/09 06:19:28;;;;;;;3.92;2.20;;;;;;;10.45;83.10;99425.14;1716093;83;20907;-62
2022/09/09 06:21:55;;;;;;;4.53;2.50;;;;;;;10.49;83.90;99425.82;1695952;83;21107;-61
2022/09/09 06:24:22;;;;;;;3.80;2.03;;;;;;;10.47;83.34;99431.14;1699064;82;21617;-62
2022/09/09 06:26:50;;;;;;;4.78;2.10;;;;;;;10.47;83.53;99425.92;1701018;82;20879;-61
2022/09/09 06:29:17;;;;;;;4.03;2.37;;;;;;;10.50;83.64;99428.37;1701141;83;20954;-61
2022/09/09 06:31:44;;;;;;;5.80;2.20;;;;;;;10.50;83.32;99425.75;1694778;82;20962;-61
2022/09/09 06:34:11;;;;;;;3.10;2.20;;;;;;;10.52;83.44;99426.50;1711782;83;21913;-63
2022/09/09 06:36:39;;;;;;;3.37;2.00;;;;;;;10.53;83.58;99429.98;1710912;82;20910;-63
2022/09/09 06:39:08;;;;;;;3.08;2.35;;;;;;;10.52;84.41;99425.19;1690352;84;20918;-62
2022/09/09 06:41:35;;;;;;;6.30;2.55;;;;;;;10.50;84.18;99429.67;1689954;83;20926;-61
2022/09/09 06:44:05;;;;;;;2.17;1.90;;;;;;;10.49;84.45;99431.88;1678695;84;20970;-61
2022/09/09 06:46:35;;;;;;;3.77;2.00;;;;;;;10.50;84.07;99428.37;1689930;83;21896;-61
2022/09/09 06:49:02;;;;;;;2.67;1.70;;;;;;;10.48;84.72;99430.20;1686557;84;21094;-61
2022/09/09 06:51:35;;;;;;;2.00;1.75;;;;;;;10.48;85.51;99440.64;1686125;84;21358;-61
2022/09/09 06:54:03;;;;;;;2.83;1.80;;;;;;;10.44;84.67;99435.18;1695748;83;20966;-61
2022/09/09 06:56:34;;;;;;;3.12;1.60;;;;;;;10.46;85.12;99445.09;1687552;84;20966;-61
2022/09/09 06:59:05;;;;;;;2.87;2.02;;;;;;;10.43;84.90;99442.64;1682943;84;21790;-61
2022/09/09 07:01:35;;;;;;;2.55;1.80;;;;;;;10.43;85.23;99441.80;1684957;83;20926;-61
2022/09/09 07:04:04;;;;;;;1.77;1.30;;;;;;;10.40;85.59;99445.41;1698140;82;20981;-61
2022/09/09 07:06:34;;;;;;;2.35;1.42;;;;;;;10.36;85.55;99451.69;1696780;82;21104;-61
2022/09/09 07:09:04;;;;;;;1.98;1.42;;;;;;;10.33;86.03;99455.77;1698319;82;20966;-61
2022/09/09 07:11:36;;;;;;;1.87;1.42;;;;;;;10.31;85.75;99461.55;1697390;82;21052;-61
2022/09/09 07:14:03;;;;;;;3.40;1.60;;;;;;;10.27;85.86;99466.52;1699974;83;20927;-61
2022/09/09 07:16:33;;;;;;;2.87;1.70;;;;;;;10.24;86.34;99462.73;1690406;83;20957;-62
2022/09/09 07:19:00;;;;;;;1.90;1.67;;;;;;;10.23;85.91;99466.27;1697771;83;20906;-60
2022/09/09 07:21:29;;;;;;;2.47;1.50;;;;;;;10.25;86.08;99469.63;1697663;83;20949;-61
2022/09/09 07:23:57;;;;;;;2.40;1.22;;;;;;;10.26;86.29;99471.33;1697192;83;21832;-61
2022/09/09 07:26:30;;;;;;;8.08;1.70;;;;;;;10.34;85.87;99471.83;1696888;83;21445;-62
2022/09/09 07:28:57;;;;;;;3.47;1.77;;;;;;;10.34;85.87;99471.83;1691173;83;20915;-62
2022/09/09 07:31:30;;;;;;;2.00;1.62;;;;;;;10.37;86.11;99471.67;1693091;83;20954;-61
2022/09/09 07:33:57;;;;;;;3.58;1.92;;;;;;;10.36;86.02;99471.73;1694617;83;20867;-61
2022/09/09 07:36:31;;;;;;;2.47;1.95;;;;;;;10.32;86.01;99472.82;1712756;83;21043;-61
2022/09/09 07:39:04;;;;;;;3.62;2.20;;;;;;;10.30;86.24;99475.49;1710321;81;21475;-62
2022/09/09 07:41:37;;;;;;;2.35;1.57;;;;;;;10.28;86.40;99470.37;1706771;83;20918;-61
2022/09/09 07:44:10;;;;;;;1.87;1.50;;;;;;;10.25;86.63;99477.02;1696289;83;20993;-61
2022/09/09 07:46:39;;;;;;;3.90;1.95;;;;;;;10.21;86.81;99475.93;1710747;82;20914;-61
2022/09/09 07:49:06;;;;;;;2.58;1.62;;;;;;;10.17;86.34;99479.16;1686050;84;21035;-61
2022/09/09 07:51:36;;;;;;;3.15;1.65;;;;;;;10.17;86.35;99484.84;1679131;84;20923;-61
2022/09/09 07:54:09;;;;;;;1.70;1.25;;;;;;;10.16;86.93;99468.78;1697462;82;21041;-58
2022/09/09 07:56:39;;;;;;;1.82;1.20;;;;;;;10.11;86.73;99482.51;1695018;83;20966;-59
2022/09/09 07:59:06;;;;;;;2.52;1.30;;;;;;;10.07;87.36;99483.97;1688834;83;20973;-58
2022/09/09 08:01:43;;;;;;;2.37;1.50;;;;;;;10.03;87.61;99478.53;1670486;84;21117;-60
2022/09/09 08:04:18;;;;;;;4.15;1.17;;;;;;;10.02;87.53;99479.43;1691849;83;20921;-60
2022/09/09 08:06:52;;;;;;;1.47;1.07;;;;;;;10.04;87.11;99482.81;1689484;84;20922;-61
2022/09/09 08:09:20;;;;;;;1.30;1.10;;;;;;;10.05;87.59;99484.52;1688114;84;20910;-60
2022/09/09 08:11:47;;;;;;;1.75;1.22;;;;;;;10.01;87.58;99485.58;1690403;84;20938;-60
2022/09/09 08:14:14;;;;;;;1.65;1.22;;;;;;;9.99;87.79;99484.80;1657256;84;21807;-60
2022/09/09 08:16:46;;;;;;;1.87;1.30;;;;;;;10.00;87.93;99489.12;1672954;83;20963;-61
2022/09/09 08:19:15;;;;;;;1.87;1.37;;;;;;;10.01;88.03;99492.09;1678055;85;20915;-61
2022/09/09 08:21:42;;;;;;;2.40;1.42;;;;;;;10.03;87.56;99492.04;1679944;84;20983;-61
2022/09/09 08:24:11;;;;;;;1.42;1.17;;;;;;;10.04;88.03;99489.34;1689880;82;20990;-61
2022/09/09 08:26:41;;;;;;;1.87;1.27;;;;;;;10.03;88.24;99499.39;1694403;83;21011;-60
2022/09/09 08:29:12;;;;;;;3.33;1.55;;;;;;;10.05;88.51;99503.22;1663702;85;20973;-61
2022/09/09 08:31:43;;;;;;;1.75;1.32;;;;;;;10.07;88.12;99500.08;1697933;82;20966;-61
2022/09/09 08:34:10;;;;;;;3.33;1.30;;;;;;;10.13;88.37;99505.46;1696141;84;20944;-61
2022/09/09 08:36:42;;;;;;;1.80;1.20;;;;;;;10.15;88.27;99504.94;1703244;82;20950;-61
2022/09/09 08:39:10;;;;;;;3.72;1.60;;;;;;;10.16;88.22;99499.63;1701264;83;21016;-61
2022/09/09 08:42:18;;;;;;;1.32;0.90;;;;;;;10.23;88.44;99500.19;1691798;83;21435;-60
2022/09/09 08:45:05;;;;;;;2.33;1.22;;;;;;;10.27;88.60;99503.05;1694120;83;21472;-60
2022/09/09 08:47:52;;;;;;;3.50;1.40;;;;;;;10.34;88.83;99503.14;1699147;82;20987;-61
2022/09/09 08:50:33;;;;;;;1.60;1.30;;;;;;;10.45;88.65;99503.45;1679532;83;21996;-60
2022/09/09 08:53:11;;;;;;;1.75;1.65;;;;;;;10.54;88.59;99502.14;1676989;84;21159;-60
2022/09/09 08:55:48;;;;;;;1.80;1.45;;;;;;;10.62;88.57;99501.76;1675984;85;20994;-60
2022/09/09 08:58:31;;;;;;;3.55;2.15;;;;;;;10.69;88.63;99490.06;1675691;85;21003;-60
2022/09/09 09:01:24;;;;;;;1.70;1.60;;;;;;;10.77;88.62;99498.81;1672666;85;20986;-60
2022/09/09 09:04:14;;;;;;;1.72;1.20;;;;;;;10.90;88.58;99499.88;1669091;85;20955;-60
2022/09/09 09:06:52;;;;;;;2.92;1.70;;;;;;;10.97;89.05;99487.70;1671938;85;21146;-60
2022/09/09 09:09:48;;;;;;;1.37;1.07;;;;;;;11.02;88.66;99497.08;1676121;84;20936;-60
2022/09/09 09:12:25;;;;;;;2.62;1.72;;;;;;;11.18;88.90;99497.95;1675453;84;21441;-60
2022/09/09 09:14:55;;;;;;;1.90;1.40;;;;;;;11.28;88.70;99500.91;1673646;83;21024;-60
2022/09/09 09:17:24;;;;;;;3.58;1.20;;;;;;;11.31;88.41;99500.27;1669744;85;20982;-60
2022/09/09 09:19:50;;;;;;;1.25;0.80;;;;;;;11.26;88.22;99507.55;1676901;85;21172;-60
2022/09/09 09:22:34;;;;;;;2.98;1.02;;;;;;;11.26;88.22;99507.55;1675679;84;20935;-60
2022/09/09 09:25:05;;;;;;;2.35;1.50;;;;;;;11.16;88.27;99501.11;1679436;85;20935;-60
2022/09/09 09:27:56;;;;;;;1.12;0.98;;;;;;;11.05;88.22;99507.36;1683467;83;20934;-60
2022/09/09 09:30:28;;;;;;;1.85;1.17;;;;;;;11.04;88.47;99510.91;1671077;85;20939;-60
2022/09/09 09:32:59;;;;;;;1.10;0.90;;;;;;;11.00;88.31;99513.28;1679172;83;21064;-61
2022/09/09 09:35:28;;;;;;;1.27;1.17;;;;;;;10.98;88.43;99514.22;1655010;85;20963;-60
2022/09/09 09:37:55;;;;;;;1.20;1.10;;;;;;;10.93;88.46;99507.08;1674170;84;20962;-60
2022/09/09 09:40:23;;;;;;;3.42;1.62;;;;;;;10.85;88.61;99509.25;1675917;85;21001;-60
2022/09/09 09:43:01;;;;;;;1.95;1.30;;;;;;;10.82;88.89;99510.71;1674898;85;20946;-60
2022/09/09 09:45:41;;;;;;;2.45;1.25;;;;;;;10.79;88.71;99514.79;1673370;85;21058;-61
2022/09/09 09:48:15;;;;;;;2.85;1.35;;;;;;;10.78;88.88;99514.85;1673137;84;20908;-60
2022/09/09 09:50:55;;;;;;;1.60;1.25;;;;;;;10.81;88.90;99512.08;1674967;84;21532;-60
2022/09/09 09:53:29;;;;;;;1.70;1.25;;;;;;;10.82;88.87;99511.18;1696820;83;21027;-60
2022/09/09 09:56:06;;;;;;;1.22;1.07;;;;;;;10.80;88.83;99515.16;1680785;84;20939;-61
2022/09/09 09:58:49;;;;;;;;;;;;;;;10.82;89.14;99515.94;1698034;83;21475;-59
2022/09/09 10:01:29;;;;;;;1.90;1.35;;;;;;;10.80;89.20;99509.94;1681715;84;20156;-62
2022/09/09 10:04:19;;;;;;;2.47;1.50;;;;;;;10.78;89.60;99513.08;1694298;83;21472;-62
2022/09/09 10:06:46;;;;;;;1.40;1.20;;;;;;;10.85;89.99;99509.25;1696222;83;20965;-62
2022/09/09 10:09:33;;;;;;;1.82;1.40;;;;;;;10.98;89.79;99506.38;1658926;84;20937;-61
2022/09/09 10:12:26;;;;;;;1.70;1.10;;;;;;;11.05;89.61;99507.36;1695825;83;21048;-61
2022/09/09 10:15:16;;;;;;;1.50;1.40;;;;;;;11.14;89.59;99512.94;1694378;84;20935;-62
2022/09/09 10:18:27;;;;;;;2.05;1.32;;;;;;;11.22;89.62;99512.53;1698739;84;21582;-61
2022/09/09 10:21:27;;;;;;;1.47;1.37;;;;;;;11.27;89.62;99507.91;1695111;84;21508;-61
2022/09/09 10:24:27;;;;;;;1.70;1.42;;;;;;;11.35;89.62;99503.12;1694603;83;21730;-60
2022/09/09 10:27:16;;;;;;;6.80;4.12;;;;;;;11.35;89.62;99503.12;1689459;83;21530;-60
2022/09/09 10:30:23;;;;;;;2.00;1.67;;;;;;;11.31;90.13;99503.36;1662762;84;21466;-60
2022/09/09 10:33:01;;;;;;;3.12;2.08;;;;;;;11.35;89.76;99503.12;1649605;85;21001;-60
2022/09/09 10:35:54;;;;;;;2.02;1.82;;;;;;;11.34;89.60;99505.36;1666501;84;21063;-61
2022/09/09 10:38:43;;;;;;;2.40;1.87;;;;;;;11.22;89.59;99481.17;1664918;84;20970;-61
2022/09/09 10:41:43;;;;;;;2.52;2.33;;;;;;;11.21;89.62;99469.05;1668578;84;21482;-62
2022/09/09 10:44:44;;;;;;;2.98;1.82;;;;;;;11.43;89.72;99504.86;1649839;85;20974;-61
2022/09/09 10:47:28;;;;;;;3.33;2.20;;;;;;;11.43;89.75;99504.86;1653476;85;20927;-61
2022/09/09 10:50:15;;;;;;;3.75;1.98;;;;;;;11.56;89.94;99513.33;1647693;85;20919;-61
2022/09/09 10:53:20;;;;;;;2.45;1.92;;;;;;;11.58;89.96;99511.02;1662961;84;20934;-61
2022/09/09 10:56:01;;;;;;;2.20;2.00;;;;;;;11.63;89.94;99509.47;1568012;90;21116;-61
2022/09/09 10:58:42;;;;;;;2.90;2.05;;;;;;;11.65;89.54;99515.00;1570467;90;21434;-61
2022/09/09 11:01:22;;;;;;;2.80;2.15;;;;;;;11.65;89.54;99515.00;1582854;88;20952;-62
2022/09/09 11:03:57;;;;;;;3.40;2.17;;;;;;;11.58;89.76;99511.48;1567043;90;21505;-61
2022/09/09 11:06:32;;;;;;;4.25;2.10;;;;;;;11.57;89.88;99517.66;1567209;90;21005;-61
2022/09/09 11:09:02;;;;;;;2.55;1.82;;;;;;;11.52;89.95;99507.43;1600132;88;21071;-62
2022/09/09 11:11:53;;;;;;;2.27;2.08;;;;;;;11.46;90.29;99509.55;1599409;88;21625;-63
2022/09/09 11:14:40;;;;;;;3.00;2.40;;;;;;;11.48;90.31;99505.05;1598839;88;21472;-63
2022/09/09 11:17:14;;;;;;;4.20;2.05;;;;;;;11.52;90.18;99515.75;1558592;90;21026;-63
2022/09/09 11:19:44;;;;;;;3.00;1.90;;;;;;;11.58;90.10;99516.71;1595795;89;20990;-63
2022/09/09 11:22:34;;;;;;;2.83;2.33;;;;;;;11.57;90.07;99517.66;1598515;88;22039;-62
2022/09/09 11:25:21;;;;;;;3.65;2.20;;;;;;;11.65;90.69;99523.31;1592628;89;20997;-63
2022/09/09 11:28:29;;;;;;;5.45;2.35;;;;;;;11.65;90.69;99523.31;1593797;88;21420;-64
2022/09/09 11:31:18;;;;;;;5.10;2.30;;;;;;;11.76;90.41;99526.18;1597959;89;20982;-61
2022/09/09 11:34:40;;;;;;;9.73;6.47;;;;;;;11.81;90.33;99522.81;1712276;82;20922;-61
2022/09/09 11:37:39;;;;;;;2.72;2.12;;;;;;;11.94;90.42;99526.11;1716375;82;21908;-62
2022/09/09 11:40:25;;;;;;;2.87;2.10;;;;;;;11.95;90.31;99527.78;1690420;84;21017;-62
2022/09/09 11:43:21;;;;;;;2.42;2.22;;;;;;;11.92;90.15;99527.96;1690173;84;21493;-62
2022/09/09 11:45:58;;;;;;;2.50;2.30;;;;;;;11.93;90.67;99533.56;1692941;83;20894;-63
2022/09/09 11:48:32;;;;;;;3.00;2.70;;;;;;;11.89;90.40;99530.75;1695111;83;20985;-62
2022/09/09 11:51:09;;;;;;;2.45;2.00;;;;;;;11.95;90.49;99535.64;1702230;82;21139;-63
2022/09/09 11:54:02;;;;;;;4.05;2.00;;;;;;;12.01;90.71;99537.91;1703075;82;20887;-62
2022/09/09 11:56:44;;;;;;;2.40;2.12;;;;;;;12.01;90.59;99536.59;1695631;83;21048;-62
2022/09/09 11:59:30;;;;;;;4.70;2.12;;;;;;;12.08;90.43;99537.48;1697321;83;21521;-62
2022/09/09 12:02:08;;;;;;;4.58;2.30;;;;;;;12.06;90.50;99535.87;1701413;83;21072;-63
2022/09/09 12:04:46;;;;;;;2.33;2.05;;;;;;;12.14;90.62;99529.75;1694311;83;21034;-62
2022/09/09 12:07:42;;;;;;;2.75;2.17;;;;;;;12.20;90.54;99530.70;1686891;84;20967;-62
2022/09/09 12:10:26;;;;;;;5.85;2.45;;;;;;;12.30;90.81;99527.95;1670660;84;20934;-61
2022/09/09 12:12:53;;;;;;;3.90;2.52;;;;;;;12.41;90.77;99533.04;1694454;83;20973;-61
2022/09/09 12:15:28;;;;;;;4.10;2.00;;;;;;;12.43;90.57;99527.23;1702952;83;20946;-61